Orillia, Canada
Current Conditions -  °F | °C
As of 9:00 AM on Thursday 30 Oct 2014 (Local Time) from CYQA Reporting Station
Broken Clouds Broken Clouds  
Wind Chill: 30°   Ceiling: 3200
Heat Index: 30°   Visibility: 9mi
Dew Point: 30°   Wind: 2mph
Humidity: 100%   Direction: NA
Pressure: 30.04"   Gusts: NA
Location:  44.61°N, 79.42°W
Report Text: CYQA 301300Z AUTO VRB02KT 9SM BKN032 M01/M01 A3004 RMK SLP183
Loading
Personal Weather Stations






























Interactive Weather Map
Tropical Storm Tracking
New forecast layout! Learn more

10-Day Weather Forecast

Advertisements
Track Severe Weather on mobile